Time;durP1;ratioP1;P1;durP2;ratioP2;P2;SDS_P1;SDS_P2;PMS_P1;PMS_P2;Temp;Humidity;BMP_temperature;BMP_pressure;BME280_temperature;BME280_humidity;BME280_pressure;Samples;Min_cycle;Max_cycle;Signal;HPM_P1;HPM_P2
2022/10/22 00:01:23;;;;;;;16.13;14.43;;;11.50;99.90;;;;;;5100717;28;20194;-75
2022/10/22 00:03:49;;;;;;;15.20;13.70;;;11.60;99.90;;;;;;5110670;28;20177;-75
2022/10/22 00:06:15;;;;;;;15.63;13.57;;;11.60;99.90;;;;;;5086722;28;20281;-75
2022/10/22 00:08:40;;;;;;;16.67;14.40;;;11.60;99.90;;;;;;5110282;28;20174;-75
2022/10/22 00:11:12;;;;;;;16.33;14.63;;;11.60;99.90;;;;;;5103182;28;20547;-75
2022/10/22 00:13:38;;;;;;;15.38;13.60;;;11.60;99.90;;;;;;5096117;28;20183;-75
2022/10/22 00:16:04;;;;;;;15.48;13.77;;;11.60;99.90;;;;;;5106483;28;20221;-77
2022/10/22 00:18:29;;;;;;;16.95;14.55;;;11.60;99.90;;;;;;5103113;28;20278;-74
2022/10/22 00:20:55;;;;;;;18.30;14.25;;;11.60;99.90;;;;;;5109230;28;20174;-75
2022/10/22 00:23:21;;;;;;;13.82;12.52;;;11.50;99.90;;;;;;5095421;28;20186;-76
2022/10/22 00:25:47;;;;;;;16.92;14.15;;;11.50;99.90;;;;;;5111975;28;20197;-75
2022/10/22 00:28:13;;;;;;;17.50;15.50;;;11.50;99.90;;;;;;5103472;28;20296;-75
2022/10/22 00:30:39;;;;;;;16.52;14.82;;;11.50;99.90;;;;;;5111523;28;20216;-75
2022/10/22 00:33:05;;;;;;;17.35;15.43;;;11.40;99.90;;;;;;5084176;28;20176;-76
2022/10/22 00:35:31;;;;;;;17.48;14.35;;;11.40;99.90;;;;;;5092438;28;20198;-75
2022/10/22 00:37:57;;;;;;;20.17;15.95;;;11.40;99.90;;;;;;5099140;28;20198;-75
2022/10/22 00:40:23;;;;;;;19.88;15.20;;;11.50;99.90;;;;;;5108263;28;20188;-76
2022/10/22 00:42:49;;;;;;;17.27;15.48;;;11.60;99.90;;;;;;5099835;28;20185;-76
2022/10/22 00:45:18;;;;;;;16.92;15.13;;;11.50;99.90;;;;;;5097921;28;20301;-77
2022/10/22 00:47:51;;;;;;;18.65;16.17;;;11.40;99.90;;;;;;5100055;28;20736;-75
2022/10/22 00:50:31;;;;;;;18.38;16.27;;;11.40;99.90;;;;;;5104720;28;20208;-75
2022/10/22 00:52:57;;;;;;;18.65;15.70;;;11.50;99.90;;;;;;5093638;28;20175;-75
2022/10/22 00:55:25;;;;;;;19.05;16.13;;;11.40;99.90;;;;;;5083331;28;20202;-75
2022/10/22 00:57:53;;;;;;;18.27;16.20;;;11.30;99.90;;;;;;5090804;28;20166;-75
2022/10/22 01:00:19;;;;;;;18.77;16.75;;;11.40;99.90;;;;;;5099402;28;20262;-74
2022/10/22 01:02:46;;;;;;;17.80;15.93;;;11.40;99.90;;;;;;5091456;28;20194;-75
2022/10/22 01:05:12;;;;;;;19.77;17.48;;;11.40;99.90;;;;;;5098081;28;20206;-75
2022/10/22 01:07:43;;;;;;;19.50;17.25;;;11.40;99.90;;;;;;5089437;28;20182;-76
2022/10/22 01:10:28;;;;;;;17.70;15.88;;;11.40;99.90;;;;;;5100541;28;20236;-75
2022/10/22 01:13:39;;;;;;;19.02;17.02;;;11.40;99.90;;;;;;5094094;28;20183;-75
2022/10/22 01:16:26;;;;;;;21.17;16.65;;;11.50;99.90;;;;;;5103253;28;20197;-75
2022/10/22 01:19:35;;;;;;;17.90;15.93;;;11.40;99.90;;;;;;5092903;28;20170;-75
2022/10/22 01:22:22;;;;;;;25.30;17.95;;;11.40;99.90;;;;;;5088104;28;20199;-75
2022/10/22 01:25:06;;;;;;;21.80;18.05;;;11.40;99.90;;;;;;5106651;28;20209;-78
2022/10/22 01:27:42;;;;;;;21.15;17.85;;;11.20;99.90;;;;;;5106829;28;20193;-74
2022/10/22 01:30:11;;;;;;;21.65;17.05;;;11.30;99.90;;;;;;5094182;28;20239;-73
2022/10/22 01:32:47;;;;;;;17.90;16.00;;;11.30;99.90;;;;;;5098125;28;20704;-73
2022/10/22 01:35:21;;;;;;;19.52;17.00;;;11.40;99.90;;;;;;5094370;28;20300;-73
2022/10/22 01:37:54;;;;;;;22.50;16.80;;;11.50;99.90;;;;;;5105225;28;20264;-74
2022/10/22 01:40:22;;;;;;;21.52;18.38;;;11.40;99.90;;;;;;5102626;28;20178;-74
2022/10/22 01:43:14;;;;;;;21.42;18.63;;;11.40;99.90;;;;;;5106194;28;20165;-74
2022/10/22 01:45:57;;;;;;;19.35;17.30;;;11.40;99.90;;;;;;5094551;28;20301;-74
2022/10/22 01:48:47;;;;;;;19.90;16.70;;;11.30;99.90;;;;;;5109338;28;20693;-76
2022/10/22 01:51:37;;;;;;;23.30;17.83;;;11.50;99.90;;;;;;5093381;28;20201;-74
2022/10/22 01:54:40;;;;;;;21.52;18.98;;;11.50;99.90;;;;;;5094408;28;20191;-75
2022/10/22 01:57:29;;;;;;;22.10;18.67;;;11.50;99.90;;;;;;5090228;28;20256;-76
2022/10/22 02:00:05;;;;;;;24.25;18.70;;;11.50;99.90;;;;;;5086757;28;20174;-77
2022/10/22 02:02:46;;;;;;;20.48;17.63;;;11.50;99.90;;;;;;5090352;28;20175;-76
2022/10/22 02:05:15;;;;;;;21.70;19.40;;;11.50;99.90;;;;;;5089234;28;20210;-76
2022/10/22 02:07:53;;;;;;;23.40;19.15;;;11.50;99.90;;;;;;5087998;28;20178;-75
2022/10/22 02:10:20;;;;;;;21.17;18.85;;;11.50;99.90;;;;;;5086380;28;20205;-76
2022/10/22 02:12:49;;;;;;;24.38;20.58;;;11.40;99.90;;;;;;5089965;28;20182;-76
2022/10/22 02:15:18;;;;;;;21.70;18.77;;;11.40;99.90;;;;;;5089951;28;20749;-75
2022/10/22 02:17:45;;;;;;;21.50;18.40;;;11.40;99.90;;;;;;5099024;28;20794;-75
2022/10/22 02:20:30;;;;;;;22.52;18.65;;;11.40;99.90;;;;;;5096240;28;20323;-76
2022/10/22 02:22:57;;;;;;;23.52;19.05;;;11.40;99.90;;;;;;5095639;28;20178;-75
2022/10/22 02:25:27;;;;;;;21.92;19.40;;;11.30;99.90;;;;;;5089186;28;20292;-75
2022/10/22 02:28:07;;;;;;;22.35;19.52;;;11.30;99.90;;;;;;5096000;28;20212;-75
2022/10/22 02:30:36;;;;;;;25.75;20.15;;;11.30;99.90;;;;;;5090619;28;20198;-74
2022/10/22 02:33:06;;;;;;;24.10;20.38;;;11.30;99.90;;;;;;5097781;28;20171;-75
2022/10/22 02:35:34;;;;;;;22.70;20.33;;;11.40;99.90;;;;;;5099580;28;20831;-74
2022/10/22 02:38:00;;;;;;;24.58;20.48;;;11.40;99.90;;;;;;5108184;28;20257;-74
2022/10/22 02:40:29;;;;;;;26.58;20.50;;;11.40;99.90;;;;;;5100841;27;20695;-76
2022/10/22 02:42:54;;;;;;;26.40;21.23;;;11.30;99.90;;;;;;5098572;28;20213;-75
2022/10/22 02:45:23;;;;;;;22.27;19.88;;;11.30;99.90;;;;;;5105410;28;20237;-75
2022/10/22 02:47:49;;;;;;;24.60;21.05;;;11.20;99.90;;;;;;5104053;28;20220;-75
2022/10/22 02:50:15;;;;;;;25.25;21.27;;;11.20;99.90;;;;;;5111104;28;20221;-75
2022/10/22 02:52:41;;;;;;;23.48;20.77;;;11.10;99.90;;;;;;5108368;28;20189;-75
2022/10/22 02:55:08;;;;;;;22.17;19.80;;;11.10;99.90;;;;;;5105151;28;20194;-75
2022/10/22 02:57:34;;;;;;;23.98;19.58;;;11.10;99.90;;;;;;5094083;28;20194;-75
2022/10/22 02:59:59;;;;;;;23.83;20.40;;;11.10;99.90;;;;;;5092690;28;20186;-74
2022/10/22 03:02:25;;;;;;;22.73;19.65;;;11.20;99.90;;;;;;5088778;28;20303;-74
2022/10/22 03:04:50;;;;;;;20.90;18.70;;;11.20;99.90;;;;;;5093915;28;20190;-75
2022/10/22 03:07:19;;;;;;;22.52;19.15;;;11.20;99.90;;;;;;5100514;28;20179;-74
2022/10/22 03:09:45;;;;;;;22.20;19.50;;;11.20;99.90;;;;;;5097961;28;20882;-75
2022/10/22 03:12:11;;;;;;;23.80;20.52;;;11.20;99.90;;;;;;5108288;28;20177;-74
2022/10/22 03:14:36;;;;;;;22.50;19.20;;;11.10;99.90;;;;;;5109679;28;20896;-75
2022/10/22 03:17:02;;;;;;;27.27;21.35;;;11.10;99.90;;;;;;5106152;28;20178;-75
2022/10/22 03:19:28;;;;;;;23.38;20.85;;;11.00;99.90;;;;;;5108635;28;20213;-75
2022/10/22 03:22:08;;;;;;;28.67;21.85;;;11.10;99.90;;;;;;5103030;28;20713;-76
2022/10/22 03:24:37;;;;;;;26.17;21.75;;;11.00;99.90;;;;;;5110831;28;20247;-76
2022/10/22 03:27:03;;;;;;;24.05;20.25;;;11.10;99.90;;;;;;5101916;28;20179;-76
2022/10/22 03:29:33;;;;;;;25.35;20.63;;;11.10;99.90;;;;;;5110940;28;20256;-75
2022/10/22 03:32:01;;;;;;;28.13;22.02;;;11.10;99.90;;;;;;5098407;28;20173;-75
2022/10/22 03:34:27;;;;;;;25.88;21.02;;;11.20;99.90;;;;;;5110985;28;20194;-75
2022/10/22 03:36:53;;;;;;;26.55;20.88;;;11.20;99.90;;;;;;5104793;28;20178;-75
2022/10/22 03:39:21;;;;;;;28.48;20.75;;;11.20;99.90;;;;;;5102488;28;20177;-75
2022/10/22 03:41:48;;;;;;;25.48;20.98;;;11.20;99.90;;;;;;5105060;28;20181;-75
2022/10/22 03:44:27;;;;;;;21.40;17.95;;;11.30;99.90;;;;;;5101059;28;20189;-75
2022/10/22 03:46:53;;;;;;;26.77;21.17;;;11.40;99.90;;;;;;5100681;28;20176;-75
2022/10/22 03:49:18;;;;;;;26.48;21.38;;;11.40;99.90;;;;;;5103728;28;20179;-75
2022/10/22 03:51:44;;;;;;;26.45;22.23;;;11.30;99.90;;;;;;5105636;28;20168;-75
2022/10/22 03:54:10;;;;;;;29.08;22.52;;;11.20;99.90;;;;;;5099864;28;20263;-75
2022/10/22 03:56:35;;;;;;;24.17;20.58;;;11.30;99.90;;;;;;5091131;28;20182;-75
2022/10/22 03:59:01;;;;;;;29.13;22.15;;;11.30;99.90;;;;;;5093456;28;20638;-75
2022/10/22 04:01:29;;;;;;;27.42;22.08;;;11.30;99.90;;;;;;5095366;28;20194;-75
2022/10/22 04:03:56;;;;;;;23.88;20.08;;;11.30;99.90;;;;;;5106397;28;20544;-75
2022/10/22 04:06:22;;;;;;;27.60;21.45;;;11.30;99.90;;;;;;5096771;28;20175;-75
2022/10/22 04:08:48;;;;;;;24.23;20.92;;;11.40;99.90;;;;;;5108567;28;20170;-75
2022/10/22 04:11:15;;;;;;;24.58;20.83;;;11.30;99.90;;;;;;5104480;28;20212;-76
2022/10/22 04:13:41;;;;;;;26.42;19.80;;;11.30;99.90;;;;;;5100039;28;20166;-76
2022/10/22 04:16:15;;;;;;;23.65;21.00;;;11.30;99.90;;;;;;5106566;28;20279;-76
2022/10/22 04:18:42;;;;;;;25.02;19.83;;;11.30;99.90;;;;;;5108870;28;20173;-76
2022/10/22 04:21:10;;;;;;;22.25;19.85;;;11.40;99.90;;;;;;5092219;28;20179;-76
2022/10/22 04:23:36;;;;;;;22.58;19.77;;;11.40;99.90;;;;;;5099983;28;20206;-76
2022/10/22 04:26:05;;;;;;;21.98;19.67;;;11.40;99.90;;;;;;5108206;28;20231;-76
2022/10/22 04:28:30;;;;;;;22.80;19.25;;;11.40;99.90;;;;;;5103906;28;20209;-76
2022/10/22 04:30:56;;;;;;;20.85;17.85;;;11.40;99.90;;;;;;5102425;28;20611;-76
2022/10/22 04:33:22;;;;;;;25.00;19.65;;;11.50;99.90;;;;;;5102808;28;20166;-75
2022/10/22 04:35:48;;;;;;;26.13;20.63;;;11.40;99.90;;;;;;5109411;28;20186;-75
2022/10/22 04:38:14;;;;;;;21.27;19.00;;;11.50;99.90;;;;;;5107120;28;20185;-76
2022/10/22 04:40:40;;;;;;;23.55;18.85;;;11.40;99.90;;;;;;5095923;28;20182;-75
2022/10/22 04:43:05;;;;;;;22.42;19.95;;;11.40;99.90;;;;;;5108150;28;20182;-76
2022/10/22 04:45:35;;;;;;;23.58;18.70;;;11.40;99.90;;;;;;5103479;28;20906;-76
2022/10/22 04:48:00;;;;;;;20.27;18.17;;;11.40;99.90;;;;;;5101292;28;20209;-76
2022/10/22 04:50:26;;;;;;;22.80;19.95;;;11.40;99.90;;;;;;5104853;28;20240;-76
2022/10/22 04:52:52;;;;;;;22.45;19.13;;;11.40;99.90;;;;;;5101411;28;20174;-76
2022/10/22 04:55:18;;;;;;;24.00;20.05;;;11.50;99.90;;;;;;5093078;28;20219;-76
2022/10/22 04:57:43;;;;;;;24.20;20.38;;;11.60;99.90;;;;;;5088566;28;20209;-76
2022/10/22 05:00:09;;;;;;;23.15;19.48;;;11.60;99.90;;;;;;5107977;28;20178;-77
2022/10/22 05:02:35;;;;;;;22.15;19.77;;;11.70;99.90;;;;;;5103966;28;20174;-75
2022/10/22 05:05:01;;;;;;;21.73;18.85;;;11.70;99.90;;;;;;5104608;28;20194;-76
2022/10/22 05:07:27;;;;;;;21.20;19.00;;;11.70;99.90;;;;;;5104526;28;20215;-77
2022/10/22 05:09:53;;;;;;;22.95;18.80;;;11.80;99.90;;;;;;5096898;28;20205;-77
2022/10/22 05:12:18;;;;;;;24.63;20.88;;;11.90;99.90;;;;;;5109234;28;20173;-77
2022/10/22 05:14:44;;;;;;;25.75;19.50;;;11.90;99.90;;;;;;5102915;28;20204;-77
2022/10/22 05:17:10;;;;;;;25.55;18.85;;;11.80;99.90;;;;;;5100168;28;20174;-77
2022/10/22 05:19:35;;;;;;;23.20;19.90;;;11.80;99.90;;;;;;5105697;28;20189;-76
2022/10/22 05:22:02;;;;;;;26.65;20.52;;;11.70;99.90;;;;;;5104672;28;20185;-75
2022/10/22 05:24:29;;;;;;;22.08;19.52;;;11.70;99.90;;;;;;5103076;28;20289;-76
2022/10/22 05:26:57;;;;;;;21.60;19.20;;;11.70;99.90;;;;;;5097167;28;20196;-76
2022/10/22 05:29:23;;;;;;;24.13;20.65;;;11.70;99.90;;;;;;5109286;28;20792;-75
2022/10/22 05:31:49;;;;;;;26.13;20.42;;;11.70;99.90;;;;;;5093620;28;20179;-76
2022/10/22 05:34:15;;;;;;;26.25;19.73;;;11.70;99.90;;;;;;5105744;28;20275;-76
2022/10/22 05:36:41;;;;;;;22.50;17.60;;;11.60;99.90;;;;;;5105421;28;20668;-80
2022/10/22 05:39:07;;;;;;;21.92;19.17;;;11.60;99.90;;;;;;5105646;28;20621;-76
2022/10/22 05:41:37;;;;;;;24.27;19.65;;;11.60;99.90;;;;;;5090346;28;20183;-76
2022/10/22 05:44:03;;;;;;;21.73;19.38;;;11.60;99.90;;;;;;5078024;28;20195;-75
2022/10/22 05:46:33;;;;;;;21.20;18.48;;;11.60;99.90;;;;;;5085161;28;20181;-75
2022/10/22 05:49:01;;;;;;;21.23;17.38;;;11.60;99.90;;;;;;5080507;28;20240;-76
2022/10/22 05:51:29;;;;;;;27.17;20.67;;;11.60;99.90;;;;;;5082798;28;20230;-75
2022/10/22 05:53:57;;;;;;;23.48;17.88;;;11.60;99.90;;;;;;5080365;28;20187;-76
2022/10/22 05:56:24;;;;;;;23.38;18.83;;;11.60;99.90;;;;;;5080951;28;20190;-76
2022/10/22 05:58:50;;;;;;;26.52;18.80;;;11.60;99.90;;;;;;5086933;28;20173;-76
2022/10/22 06:01:24;;;;;;;22.33;19.13;;;11.70;99.90;;;;;;5087407;28;20260;-75
2022/10/22 06:03:54;;;;;;;22.30;19.40;;;11.70;99.90;;;;;;5080347;28;20208;-75
2022/10/22 06:06:43;;;;;;;24.17;18.90;;;11.70;99.90;;;;;;5077165;28;20249;-76
2022/10/22 06:09:17;;;;;;;24.77;18.67;;;11.60;99.90;;;;;;5081583;28;20182;-75
2022/10/22 06:11:43;;;;;;;20.90;18.50;;;11.50;99.90;;;;;;5087502;28;20193;-77
2022/10/22 06:14:10;;;;;;;21.52;18.63;;;11.60;99.90;;;;;;5097033;28;20175;-77
2022/10/22 06:16:35;;;;;;;19.50;17.27;;;11.60;99.90;;;;;;5093702;28;20168;-76
2022/10/22 06:19:01;;;;;;;22.80;19.33;;;11.60;99.90;;;;;;5107378;28;20180;-76
2022/10/22 06:21:28;;;;;;;23.45;18.88;;;11.70;99.90;;;;;;5096989;28;20821;-76
2022/10/22 06:24:00;;;;;;;23.67;19.23;;;11.60;99.90;;;;;;5087335;28;20613;-77
2022/10/22 06:26:26;;;;;;;20.50;18.33;;;11.80;99.90;;;;;;5088966;28;20488;-77
2022/10/22 06:28:55;;;;;;;20.55;18.48;;;11.80;99.90;;;;;;5095077;28;20184;-76
2022/10/22 06:31:21;;;;;;;22.58;19.13;;;11.80;99.90;;;;;;5085072;28;20198;-76
2022/10/22 06:33:47;;;;;;;21.63;17.63;;;11.80;99.90;;;;;;5097424;28;20765;-76
2022/10/22 06:36:15;;;;;;;21.90;18.90;;;11.80;99.90;;;;;;5093439;28;20207;-76
2022/10/22 06:38:41;;;;;;;22.50;18.25;;;11.80;99.90;;;;;;5087562;28;20648;-75
2022/10/22 06:41:12;;;;;;;23.88;19.85;;;11.70;99.90;;;;;;5104937;28;20228;-76
2022/10/22 06:43:39;;;;;;;26.17;18.92;;;11.80;99.90;;;;;;5109692;27;20178;-75
2022/10/22 06:46:08;;;;;;;23.90;20.33;;;11.80;99.90;;;;;;5095738;28;20202;-76
2022/10/22 06:48:36;;;;;;;23.67;19.42;;;11.80;99.90;;;;;;5099527;28;20264;-77
2022/10/22 06:51:09;;;;;;;24.58;19.13;;;11.80;99.90;;;;;;5102190;28;20205;-77
2022/10/22 06:53:35;;;;;;;22.88;20.05;;;11.80;99.90;;;;;;5102731;28;20574;-77
2022/10/22 06:56:22;;;;;;;22.48;20.02;;;11.90;99.90;;;;;;5088910;28;20665;-77
2022/10/22 06:58:52;;;;;;;28.88;20.38;;;11.90;99.90;;;;;;5099420;28;20215;-79
2022/10/22 07:01:21;;;;;;;21.85;18.08;;;12.00;99.90;;;;;;5095211;28;20190;-77
2022/10/22 07:03:48;;;;;;;20.88;18.70;;;12.10;99.90;;;;;;5084006;28;20211;-76
2022/10/22 07:06:15;;;;;;;20.25;18.15;;;12.10;99.90;;;;;;5086126;28;20214;-78
2022/10/22 07:08:42;;;;;;;17.55;15.32;;;12.20;99.90;;;;;;5092980;28;20204;-77
2022/10/22 07:11:13;;;;;;;21.05;18.70;;;12.20;99.90;;;;;;5094521;28;20277;-77
2022/10/22 07:13:40;;;;;;;22.33;18.65;;;12.30;99.90;;;;;;5094922;28;20175;-77
2022/10/22 07:16:06;;;;;;;21.05;18.58;;;12.10;99.90;;;;;;5092628;28;20195;-76
2022/10/22 07:18:33;;;;;;;20.38;17.33;;;12.20;99.90;;;;;;5080774;28;20179;-77
2022/10/22 07:20:59;;;;;;;19.95;17.85;;;12.20;99.90;;;;;;5085298;28;20227;-76
2022/10/22 07:23:26;;;;;;;19.27;17.38;;;12.30;99.90;;;;;;5083838;28;20660;-76
2022/10/22 07:25:52;;;;;;;12.32;11.13;;;12.30;99.90;;;;;;5084948;28;20207;-75
2022/10/22 07:28:18;;;;;;;18.02;15.98;;;12.50;99.90;;;;;;5089655;28;20193;-77
2022/10/22 07:30:44;;;;;;;15.30;13.73;;;12.70;99.90;;;;;;5101340;28;20206;-77
2022/10/22 07:33:10;;;;;;;13.55;12.35;;;12.70;99.90;;;;;;5091830;28;20171;-76
2022/10/22 07:35:38;;;;;;;13.25;11.73;;;12.80;99.90;;;;;;5091359;28;20795;-76
2022/10/22 07:38:05;;;;;;;14.82;12.25;;;12.80;99.90;;;;;;5090163;28;20653;-76
2022/10/22 07:40:31;;;;;;;9.60;7.30;;;12.80;99.90;;;;;;5089032;28;20550;-79
2022/10/22 07:42:57;;;;;;;9.35;8.43;;;12.80;99.90;;;;;;5100786;28;20183;-77
2022/10/22 07:45:22;;;;;;;7.70;5.97;;;12.90;99.90;;;;;;5103762;28;20216;-75
2022/10/22 07:47:48;;;;;;;5.13;4.63;;;13.00;99.90;;;;;;5091571;28;20674;-75
2022/10/22 07:50:15;;;;;;;5.30;4.90;;;13.20;99.90;;;;;;5075599;28;20210;-77
2022/10/22 07:52:41;;;;;;;5.03;4.63;;;13.30;99.90;;;;;;5083103;28;20197;-75
2022/10/22 07:55:07;;;;;;;5.22;4.72;;;13.40;99.90;;;;;;5083712;28;20191;-79
2022/10/22 07:57:34;;;;;;;5.43;4.50;;;13.40;99.90;;;;;;5088105;28;20183;-79
2022/10/22 07:59:59;;;;;;;6.80;5.53;;;13.50;99.90;;;;;;5081327;28;20178;-77
2022/10/22 08:02:25;;;;;;;5.22;4.63;;;13.60;99.90;;;;;;5087067;28;20558;-77
2022/10/22 08:04:55;;;;;;;5.07;4.68;;;13.80;99.90;;;;;;5108111;28;20250;-75
2022/10/22 08:07:22;;;;;;;5.65;5.20;;;13.90;99.90;;;;;;5094150;28;20242;-78
2022/10/22 08:09:48;;;;;;;5.32;4.80;;;14.00;99.90;;;;;;5087037;28;20651;-78
2022/10/22 08:12:14;;;;;;;7.47;5.45;;;14.10;99.90;;;;;;5093500;28;20190;-78
2022/10/22 08:14:40;;;;;;;6.13;5.63;;;14.20;99.90;;;;;;5098580;28;20286;-78
2022/10/22 08:17:05;;;;;;;6.15;5.55;;;14.20;99.90;;;;;;5102514;28;20173;-78
2022/10/22 08:19:31;;;;;;;6.18;4.80;;;14.30;99.90;;;;;;5085246;28;20187;-79
2022/10/22 08:21:58;;;;;;;6.57;4.82;;;14.30;99.90;;;;;;5101862;28;20660;-79
2022/10/22 08:24:25;;;;;;;4.68;4.38;;;14.40;99.90;;;;;;5096191;28;20689;-79
2022/10/22 08:26:53;;;;;;;5.00;4.50;;;14.40;99.90;;;;;;5103256;28;20203;-78
2022/10/22 08:29:21;;;;;;;4.78;4.38;;;14.40;99.90;;;;;;5088847;28;20170;-78
2022/10/22 08:31:48;;;;;;;4.82;4.38;;;14.60;99.90;;;;;;5093050;28;20608;-79
2022/10/22 08:34:59;;;;;;;11.90;4.90;;;14.70;99.90;;;;;;5104789;28;20174;-78
2022/10/22 08:38:00;;;;;;;4.57;3.58;;;14.70;99.90;;;;;;5094298;28;20183;-78
2022/10/22 08:40:47;;;;;;;3.65;3.40;;;14.80;99.90;;;;;;5099343;28;20182;-78
2022/10/22 08:43:58;;;;;;;4.25;3.83;;;14.90;99.90;;;;;;5100961;28;20183;-79
2022/10/22 08:47:02;;;;;;;4.13;3.90;;;15.00;99.90;;;;;;5103906;28;20186;-78
2022/10/22 08:49:34;;;;;;;3.55;3.10;;;15.10;99.90;;;;;;5107505;28;20220;-79
2022/10/22 08:52:08;;;;;;;3.95;3.50;;;15.20;99.90;;;;;;5098841;28;20204;-79
2022/10/22 08:54:45;;;;;;;3.47;3.17;;;15.40;99.90;;;;;;5108125;28;20217;-78
2022/10/22 08:57:22;;;;;;;3.35;3.15;;;15.50;99.90;;;;;;5103044;28;20171;-78
2022/10/22 09:00:12;;;;;;;2.90;2.65;;;15.60;99.90;;;;;;5102890;28;20177;-78
2022/10/22 09:06:17;;;;;;;2.65;2.30;;;15.80;99.90;;;;;;5100703;28;20245;-78
2022/10/22 09:08:45;;;;;;;2.60;2.40;;;15.90;99.90;;;;;;5103997;28;20179;-80
2022/10/22 09:11:29;;;;;;;2.40;2.20;;;16.00;99.90;;;;;;5093003;28;20218;-77
2022/10/22 09:13:56;;;;;;;2.17;2.00;;;16.10;99.90;;;;;;5097863;28;20182;-77
2022/10/22 09:16:30;;;;;;;2.80;2.60;;;16.20;99.90;;;;;;5089583;28;20190;-76
2022/10/22 09:19:34;;;;;;;2.70;1.90;;;16.30;99.90;;;;;;5088817;28;20696;-76
2022/10/22 09:22:12;;;;;;;2.40;2.20;;;16.30;99.90;;;;;;5087924;28;20213;-77
2022/10/22 09:24:51;;;;;;;2.60;2.50;;;16.50;99.90;;;;;;5087684;28;20198;-76
2022/10/22 09:27:23;;;;;;;3.90;2.50;;;16.60;99.90;;;;;;5092602;28;20183;-77
2022/10/22 09:29:51;;;;;;;2.47;2.38;;;16.60;99.90;;;;;;5105991;28;20176;-77
2022/10/22 09:32:18;;;;;;;2.45;2.25;;;16.70;99.90;;;;;;5087254;28;20175;-77
2022/10/22 09:34:45;;;;;;;2.38;2.17;;;16.70;99.90;;;;;;5089869;28;20452;-77
2022/10/22 09:37:11;;;;;;;1.83;1.73;;;16.80;99.90;;;;;;5095217;28;20178;-77
2022/10/22 09:39:50;;;;;;;2.40;2.30;;;16.90;99.90;;;;;;5079162;28;20262;-77
2022/10/22 09:42:17;;;;;;;4.97;2.08;;;16.80;99.90;;;;;;5097208;28;20186;-76
2022/10/22 09:44:49;;;;;;;2.40;2.30;;;16.80;99.90;;;;;;5089846;28;20206;-78
2022/10/22 09:47:32;;;;;;;2.10;1.90;;;16.90;99.90;;;;;;5099812;28;20266;-77
2022/10/22 09:50:23;;;;;;;2.17;1.98;;;17.00;99.90;;;;;;5093454;28;20240;-78
2022/10/22 09:53:40;;;;;;;2.85;1.92;;;17.20;99.90;;;;;;5094666;28;20178;-78
2022/10/22 09:56:27;;;;;;;2.20;2.10;;;17.60;99.90;;;;;;5094744;28;20198;-77
2022/10/22 09:58:55;;;;;;;1.80;1.73;;;17.90;99.90;;;;;;5092532;28;20202;-77
2022/10/22 10:01:28;;;;;;;3.05;1.67;;;18.20;99.90;;;;;;5092907;28;20192;-75
2022/10/22 10:04:01;;;;;;;1.95;1.50;;;18.40;99.90;;;;;;5118053;28;20174;-79
2022/10/22 10:06:31;;;;;;;1.75;1.75;;;18.40;99.90;;;;;;5110366;28;20186;-77
2022/10/22 10:09:01;;;;;;;1.48;1.20;;;18.40;99.90;;;;;;5108046;28;20182;-77
2022/10/22 10:11:42;;;;;;;2.55;1.60;;;18.60;99.90;;;;;;5097330;28;20665;-77
2022/10/22 10:14:23;;;;;;;1.70;1.60;;;18.70;99.90;;;;;;5112107;27;20177;-77
2022/10/22 10:17:08;;;;;;;2.00;1.90;;;18.80;99.90;;;;;;5097723;28;20705;-77
2022/10/22 10:20:08;;;;;;;2.28;1.75;;;20.30;99.90;;;;;;5101637;28;20191;-77
2022/10/22 10:22:55;;;;;;;1.98;1.40;;;21.90;99.90;;;;;;5095754;28;20190;-78
2022/10/22 10:26:07;;;;;;;3.20;1.33;;;23.50;99.90;;;;;;5099923;28;20210;-74
2022/10/22 10:28:57;;;;;;;1.35;1.25;;;24.90;99.90;;;;;;5093497;28;20187;-75
2022/10/22 10:31:31;;;;;;;1.38;1.17;;;25.10;99.90;;;;;;5086208;28;20624;-77
2022/10/22 10:34:23;;;;;;;2.50;1.38;;;25.70;99.90;;;;;;5104613;28;20687;-76
2022/10/22 10:37:11;;;;;;;1.65;1.55;;;24.40;99.90;;;;;;5089712;28;20316;-77
2022/10/22 10:40:15;;;;;;;2.47;1.70;;;22.80;99.90;;;;;;5105168;28;20177;-76
2022/10/22 10:42:55;;;;;;;1.70;1.60;;;21.40;99.90;;;;;;5098580;28;20896;-74
2022/10/22 10:45:35;;;;;;;1.75;1.65;;;20.40;99.90;;;;;;5095820;28;20265;-74
2022/10/22 10:48:13;;;;;;;2.53;1.50;;;19.80;99.90;;;;;;5102848;27;20188;-74
2022/10/22 10:50:50;;;;;;;1.70;1.60;;;19.50;99.90;;;;;;5087647;28;20208;-74
2022/10/22 10:53:46;;;;;;;1.15;1.15;;;21.50;99.90;;;;;;5110102;28;20197;-78
2022/10/22 10:56:18;;;;;;;2.58;1.42;;;24.80;99.90;;;;;;5100863;28;20597;-78
2022/10/22 10:58:59;;;;;;;1.95;1.20;;;27.30;99.90;;;;;;5094808;28;20219;-80
2022/10/22 11:01:33;;;;;;;3.60;1.10;;;28.70;93.60;;;;;;5092932;28;20183;-80
2022/10/22 11:04:07;;;;;;;1.20;1.10;;;28.70;91.10;;;;;;5096727;28;20178;-80
2022/10/22 11:06:36;;;;;;;2.03;1.02;;;27.90;91.70;;;;;;5112375;28;20182;-79
2022/10/22 11:09:07;;;;;;;1.38;1.10;;;27.70;91.10;;;;;;5104778;28;20261;-81
2022/10/22 11:11:46;;;;;;;0.90;0.90;;;27.90;90.40;;;;;;5100632;28;20222;-81
2022/10/22 11:14:30;;;;;;;0.90;0.90;;;29.50;87.30;;;;;;5084458;28;20167;-79
2022/10/22 11:17:04;;;;;;;2.90;1.15;;;31.10;79.40;;;;;;5084218;28;20162;-76
2022/10/22 11:19:50;;;;;;;1.45;0.88;;;32.40;73.10;;;;;;5090600;28;20195;-76
2022/10/22 11:22:27;;;;;;;2.30;1.00;;;33.20;69.10;;;;;;5089902;28;20257;-76
2022/10/22 11:25:11;;;;;;;1.02;0.98;;;34.10;67.10;;;;;;5091321;28;20189;-74
2022/10/22 11:28:10;;;;;;;1.35;1.25;;;34.20;62.00;;;;;;5083070;28;20261;-75
2022/10/22 11:30:37;;;;;;;1.30;1.20;;;33.40;62.10;;;;;;5076052;28;20207;-76
2022/10/22 11:33:11;;;;;;;1.05;1.05;;;33.10;63.10;;;;;;5077149;28;20672;-76
2022/10/22 11:35:42;;;;;;;1.92;0.75;;;33.40;62.40;;;;;;5100195;28;20692;-76
2022/10/22 11:38:14;;;;;;;0.80;0.80;;;33.20;60.70;;;;;;5096437;28;20169;-81
2022/10/22 11:41:04;;;;;;;0.93;0.90;;;32.60;62.80;;;;;;5112491;28;20179;-80
2022/10/22 11:44:08;;;;;;;1.00;1.00;;;32.20;63.20;;;;;;5089822;28;20182;-79
2022/10/22 11:46:52;;;;;;;5.75;0.93;;;32.10;62.10;;;;;;5097976;28;20200;-77
2022/10/22 11:49:23;;;;;;;0.57;0.57;;;32.30;61.80;;;;;;5082781;28;20182;-76
2022/10/22 11:51:49;;;;;;;4.13;0.90;;;33.40;62.00;;;;;;5089329;28;20192;-78
2022/10/22 11:54:33;;;;;;;3.30;1.00;;;34.60;57.70;;;;;;5088528;28;20173;-77
2022/10/22 11:57:14;;;;;;;2.15;0.80;;;35.10;56.60;;;;;;5085337;28;20189;-77
2022/10/22 11:59:46;;;;;;;2.22;0.80;;;35.80;55.30;;;;;;5099723;28;20261;-77
2022/10/22 12:02:37;;;;;;;3.00;0.95;;;36.60;54.30;;;;;;5094206;28;20334;-78
2022/10/22 12:05:20;;;;;;;1.00;1.00;;;37.30;52.80;;;;;;5095584;28;20245;-78
2022/10/22 12:07:55;;;;;;;1.10;0.77;;;37.30;51.10;;;;;;5102717;28;20214;-78
2022/10/22 12:10:28;;;;;;;1.48;0.60;;;37.40;51.60;;;;;;5101452;28;20201;-76
2022/10/22 12:12:58;;;;;;;0.60;0.60;;;37.50;50.50;;;;;;5082032;28;20281;-77
2022/10/22 12:15:26;;;;;;;1.00;0.80;;;37.60;49.90;;;;;;5082913;28;20225;-78
2022/10/22 12:18:04;;;;;;;0.68;0.50;;;36.60;50.20;;;;;;5086384;28;20545;-77
2022/10/22 12:20:30;;;;;;;0.70;0.70;;;36.10;51.40;;;;;;5087606;28;20289;-77
2022/10/22 12:22:57;;;;;;;0.82;0.82;;;35.70;51.80;;;;;;5085490;28;20181;-77
2022/10/22 12:25:28;;;;;;;2.03;0.98;;;34.10;52.30;;;;;;5079930;28;20202;-77
2022/10/22 12:27:57;;;;;;;1.15;0.80;;;33.20;54.50;;;;;;5077438;28;20249;-74
2022/10/22 12:30:25;;;;;;;1.13;0.80;;;32.30;56.70;;;;;;5083844;28;20225;-75
2022/10/22 12:32:53;;;;;;;1.23;1.10;;;32.00;56.50;;;;;;5081198;28;20171;-75
2022/10/22 12:35:23;;;;;;;2.47;0.90;;;31.30;57.10;;;;;;5086897;28;20206;-75
2022/10/22 12:38:10;;;;;;;1.45;1.00;;;31.20;58.30;;;;;;5073489;28;20688;-74
2022/10/22 12:40:35;;;;;;;0.93;0.70;;;31.00;59.10;;;;;;5089042;28;20573;-74
2022/10/22 12:43:10;;;;;;;1.10;1.10;;;30.30;59.90;;;;;;5093284;28;20182;-75
2022/10/22 12:45:36;;;;;;;1.58;1.40;;;29.40;62.20;;;;;;5106901;27;20222;-76
2022/10/22 12:48:06;;;;;;;1.13;1.00;;;28.60;64.70;;;;;;5079190;28;20182;-77
2022/10/22 12:50:44;;;;;;;2.38;0.80;;;28.40;66.20;;;;;;5093320;28;20260;-76
2022/10/22 12:53:23;;;;;;;1.05;0.60;;;28.00;67.40;;;;;;5102979;28;20201;-75
2022/10/22 12:55:52;;;;;;;0.95;0.80;;;27.30;69.60;;;;;;5099939;27;20199;-74
2022/10/22 12:58:26;;;;;;;0.82;0.70;;;26.90;69.90;;;;;;5109238;28;20249;-78
2022/10/22 13:00:57;;;;;;;1.42;0.90;;;26.50;71.00;;;;;;5098685;28;20204;-78
2022/10/22 13:03:33;;;;;;;3.17;0.90;;;26.30;73.80;;;;;;5116250;28;20180;-78
2022/10/22 13:06:35;;;;;;;1.80;1.23;;;25.70;75.10;;;;;;5112574;28;20197;-77